sensor_id;sensor_type;location;lat;lon;timestamp;P1;durP1;ratioP1;P2;durP2;ratioP2
37931;SDS011;23758;42.640;23.302;2023-04-15T00:02:20;3.00;;;2.80;;
37931;SDS011;23758;42.640;23.302;2023-04-15T00:04:46;3.13;;;2.92;;
37931;SDS011;23758;42.640;23.302;2023-04-15T00:07:12;3.25;;;3.05;;
37931;SDS011;23758;42.640;23.302;2023-04-15T00:09:38;2.90;;;2.70;;
37931;SDS011;23758;42.640;23.302;2023-04-15T00:12:05;3.40;;;3.20;;
37931;SDS011;23758;42.640;23.302;2023-04-15T00:14:30;3.28;;;3.08;;
37931;SDS011;23758;42.640;23.302;2023-04-15T00:16:56;3.10;;;2.90;;
37931;SDS011;23758;42.640;23.302;2023-04-15T00:19:22;2.90;;;2.70;;
37931;SDS011;23758;42.640;23.302;2023-04-15T00:21:48;3.20;;;3.00;;
37931;SDS011;23758;42.640;23.302;2023-04-15T00:24:14;3.00;;;2.80;;
37931;SDS011;23758;42.640;23.302;2023-04-15T00:26:39;3.10;;;2.90;;
37931;SDS011;23758;42.640;23.302;2023-04-15T00:29:05;3.40;;;3.20;;
37931;SDS011;23758;42.640;23.302;2023-04-15T00:31:30;3.10;;;2.90;;
37931;SDS011;23758;42.640;23.302;2023-04-15T00:33:56;3.00;;;2.80;;
37931;SDS011;23758;42.640;23.302;2023-04-15T00:36:22;3.30;;;3.10;;
37931;SDS011;23758;42.640;23.302;2023-04-15T00:38:48;3.70;;;3.40;;
37931;SDS011;23758;42.640;23.302;2023-04-15T00:41:14;2.95;;;2.75;;
37931;SDS011;23758;42.640;23.302;2023-04-15T00:43:39;3.00;;;2.80;;
37931;SDS011;23758;42.640;23.302;2023-04-15T00:46:05;3.00;;;2.80;;
37931;SDS011;23758;42.640;23.302;2023-04-15T00:48:31;3.00;;;2.80;;
37931;SDS011;23758;42.640;23.302;2023-04-15T00:50:57;2.90;;;2.70;;
37931;SDS011;23758;42.640;23.302;2023-04-15T00:53:22;3.30;;;3.05;;
37931;SDS011;23758;42.640;23.302;2023-04-15T00:55:48;3.05;;;2.85;;
37931;SDS011;23758;42.640;23.302;2023-04-15T00:58:14;3.00;;;2.80;;
37931;SDS011;23758;42.640;23.302;2023-04-15T01:00:40;2.80;;;2.60;;
37931;SDS011;23758;42.640;23.302;2023-04-15T01:03:06;3.00;;;2.80;;
37931;SDS011;23758;42.640;23.302;2023-04-15T01:05:32;3.10;;;2.90;;
37931;SDS011;23758;42.640;23.302;2023-04-15T01:07:58;3.13;;;2.92;;
37931;SDS011;23758;42.640;23.302;2023-04-15T01:10:23;3.00;;;2.80;;
37931;SDS011;23758;42.640;23.302;2023-04-15T01:12:49;3.05;;;2.85;;
37931;SDS011;23758;42.640;23.302;2023-04-15T01:15:14;2.90;;;2.70;;
37931;SDS011;23758;42.640;23.302;2023-04-15T01:17:40;3.08;;;2.88;;
37931;SDS011;23758;42.640;23.302;2023-04-15T01:20:06;3.15;;;2.95;;
37931;SDS011;23758;42.640;23.302;2023-04-15T01:22:34;2.90;;;2.70;;
37931;SDS011;23758;42.640;23.302;2023-04-15T01:25:00;3.20;;;3.00;;
37931;SDS011;23758;42.640;23.302;2023-04-15T01:27:32;3.20;;;3.00;;
37931;SDS011;23758;42.640;23.302;2023-04-15T01:29:59;3.05;;;2.85;;
37931;SDS011;23758;42.640;23.302;2023-04-15T01:32:25;3.00;;;2.80;;
37931;SDS011;23758;42.640;23.302;2023-04-15T01:34:51;3.20;;;3.00;;
37931;SDS011;23758;42.640;23.302;2023-04-15T01:37:16;3.00;;;2.80;;
37931;SDS011;23758;42.640;23.302;2023-04-15T01:39:42;3.10;;;2.90;;
37931;SDS011;23758;42.640;23.302;2023-04-15T01:42:08;3.00;;;2.80;;
37931;SDS011;23758;42.640;23.302;2023-04-15T01:44:34;3.08;;;2.88;;
37931;SDS011;23758;42.640;23.302;2023-04-15T01:46:59;2.95;;;2.75;;
37931;SDS011;23758;42.640;23.302;2023-04-15T01:49:25;3.10;;;2.90;;
37931;SDS011;23758;42.640;23.302;2023-04-15T01:51:51;3.03;;;2.83;;
37931;SDS011;23758;42.640;23.302;2023-04-15T01:54:19;20.30;;;3.30;;
37931;SDS011;23758;42.640;23.302;2023-04-15T01:56:44;3.10;;;2.90;;
37931;SDS011;23758;42.640;23.302;2023-04-15T01:59:10;3.03;;;2.83;;
37931;SDS011;23758;42.640;23.302;2023-04-15T02:01:35;3.00;;;2.80;;
37931;SDS011;23758;42.640;23.302;2023-04-15T02:04:01;2.92;;;2.72;;
37931;SDS011;23758;42.640;23.302;2023-04-15T02:06:26;3.00;;;2.80;;
37931;SDS011;23758;42.640;23.302;2023-04-15T02:08:52;3.10;;;2.90;;
37931;SDS011;23758;42.640;23.302;2023-04-15T02:11:17;3.70;;;3.50;;
37931;SDS011;23758;42.640;23.302;2023-04-15T02:13:43;3.10;;;2.90;;
37931;SDS011;23758;42.640;23.302;2023-04-15T02:16:15;3.05;;;2.85;;
37931;SDS011;23758;42.640;23.302;2023-04-15T02:18:42;3.10;;;2.90;;
37931;SDS011;23758;42.640;23.302;2023-04-15T02:21:11;3.22;;;3.03;;
37931;SDS011;23758;42.640;23.302;2023-04-15T02:23:37;3.00;;;2.80;;
37931;SDS011;23758;42.640;23.302;2023-04-15T02:26:02;3.08;;;2.88;;
37931;SDS011;23758;42.640;23.302;2023-04-15T02:28:28;3.00;;;2.80;;
37931;SDS011;23758;42.640;23.302;2023-04-15T02:30:53;2.95;;;2.75;;
37931;SDS011;23758;42.640;23.302;2023-04-15T02:33:21;3.10;;;2.90;;
37931;SDS011;23758;42.640;23.302;2023-04-15T02:35:47;2.90;;;2.70;;
37931;SDS011;23758;42.640;23.302;2023-04-15T02:38:12;3.03;;;2.83;;
37931;SDS011;23758;42.640;23.302;2023-04-15T02:40:40;3.33;;;3.03;;
37931;SDS011;23758;42.640;23.302;2023-04-15T02:43:06;2.90;;;2.70;;
37931;SDS011;23758;42.640;23.302;2023-04-15T02:45:32;3.20;;;3.00;;
37931;SDS011;23758;42.640;23.302;2023-04-15T02:47:57;10.27;;;3.05;;
37931;SDS011;23758;42.640;23.302;2023-04-15T02:50:23;3.00;;;2.80;;
37931;SDS011;23758;42.640;23.302;2023-04-15T02:52:49;3.00;;;2.80;;
37931;SDS011;23758;42.640;23.302;2023-04-15T02:55:15;3.10;;;2.90;;
37931;SDS011;23758;42.640;23.302;2023-04-15T02:57:42;3.10;;;2.90;;
37931;SDS011;23758;42.640;23.302;2023-04-15T03:00:07;3.20;;;3.00;;
37931;SDS011;23758;42.640;23.302;2023-04-15T03:02:36;3.10;;;2.90;;
37931;SDS011;23758;42.640;23.302;2023-04-15T03:05:02;2.90;;;2.70;;
37931;SDS011;23758;42.640;23.302;2023-04-15T03:07:28;3.30;;;3.10;;
37931;SDS011;23758;42.640;23.302;2023-04-15T03:09:53;3.10;;;2.90;;
37931;SDS011;23758;42.640;23.302;2023-04-15T03:12:19;3.20;;;3.00;;
37931;SDS011;23758;42.640;23.302;2023-04-15T03:14:45;3.10;;;2.90;;
37931;SDS011;23758;42.640;23.302;2023-04-15T03:17:10;3.00;;;2.80;;
37931;SDS011;23758;42.640;23.302;2023-04-15T03:19:36;3.15;;;2.95;;
37931;SDS011;23758;42.640;23.302;2023-04-15T03:22:01;2.95;;;2.75;;
37931;SDS011;23758;42.640;23.302;2023-04-15T03:24:26;4.32;;;3.40;;
37931;SDS011;23758;42.640;23.302;2023-04-15T03:26:53;3.10;;;2.90;;
37931;SDS011;23758;42.640;23.302;2023-04-15T03:29:19;3.17;;;2.97;;
37931;SDS011;23758;42.640;23.302;2023-04-15T03:31:44;3.10;;;2.90;;
37931;SDS011;23758;42.640;23.302;2023-04-15T03:34:10;2.92;;;2.72;;
37931;SDS011;23758;42.640;23.302;2023-04-15T03:36:35;3.10;;;2.90;;
37931;SDS011;23758;42.640;23.302;2023-04-15T03:39:01;3.10;;;2.90;;
37931;SDS011;23758;42.640;23.302;2023-04-15T03:41:28;3.30;;;3.10;;
37931;SDS011;23758;42.640;23.302;2023-04-15T03:43:53;3.30;;;3.10;;
37931;SDS011;23758;42.640;23.302;2023-04-15T03:46:19;3.30;;;3.10;;
37931;SDS011;23758;42.640;23.302;2023-04-15T03:48:45;3.03;;;2.83;;
37931;SDS011;23758;42.640;23.302;2023-04-15T03:51:11;3.10;;;2.90;;
37931;SDS011;23758;42.640;23.302;2023-04-15T03:53:36;3.25;;;3.05;;
37931;SDS011;23758;42.640;23.302;2023-04-15T03:56:02;3.20;;;3.00;;
37931;SDS011;23758;42.640;23.302;2023-04-15T03:58:27;3.50;;;3.22;;
37931;SDS011;23758;42.640;23.302;2023-04-15T04:00:53;3.28;;;3.08;;
37931;SDS011;23758;42.640;23.302;2023-04-15T04:03:19;3.13;;;2.92;;
37931;SDS011;23758;42.640;23.302;2023-04-15T04:05:44;3.08;;;2.88;;
37931;SDS011;23758;42.640;23.302;2023-04-15T04:08:10;3.00;;;2.80;;
37931;SDS011;23758;42.640;23.302;2023-04-15T04:10:38;3.00;;;2.80;;
37931;SDS011;23758;42.640;23.302;2023-04-15T04:13:04;3.00;;;2.80;;
37931;SDS011;23758;42.640;23.302;2023-04-15T04:15:29;3.05;;;2.85;;
37931;SDS011;23758;42.640;23.302;2023-04-15T04:17:55;3.10;;;2.90;;
37931;SDS011;23758;42.640;23.302;2023-04-15T04:20:21;3.00;;;2.80;;
37931;SDS011;23758;42.640;23.302;2023-04-15T04:22:46;3.17;;;2.97;;
37931;SDS011;23758;42.640;23.302;2023-04-15T04:25:12;3.17;;;2.97;;
37931;SDS011;23758;42.640;23.302;2023-04-15T04:27:37;3.00;;;2.80;;
37931;SDS011;23758;42.640;23.302;2023-04-15T04:30:03;2.90;;;2.70;;
37931;SDS011;23758;42.640;23.302;2023-04-15T04:32:29;2.90;;;2.70;;
37931;SDS011;23758;42.640;23.302;2023-04-15T04:34:55;2.90;;;2.70;;
37931;SDS011;23758;42.640;23.302;2023-04-15T04:37:20;3.00;;;2.80;;
37931;SDS011;23758;42.640;23.302;2023-04-15T04:39:47;2.90;;;2.70;;
37931;SDS011;23758;42.640;23.302;2023-04-15T04:42:12;2.40;;;2.30;;
37931;SDS011;23758;42.640;23.302;2023-04-15T04:44:38;2.20;;;2.10;;
37931;SDS011;23758;42.640;23.302;2023-04-15T04:47:03;2.10;;;2.00;;
37931;SDS011;23758;42.640;23.302;2023-04-15T04:49:29;2.00;;;1.90;;
37931;SDS011;23758;42.640;23.302;2023-04-15T04:51:54;2.10;;;2.00;;
37931;SDS011;23758;42.640;23.302;2023-04-15T04:54:20;2.03;;;1.92;;
37931;SDS011;23758;42.640;23.302;2023-04-15T04:56:46;2.47;;;2.17;;
37931;SDS011;23758;42.640;23.302;2023-04-15T04:59:11;2.15;;;1.95;;
37931;SDS011;23758;42.640;23.302;2023-04-15T05:01:37;1.92;;;1.83;;
37931;SDS011;23758;42.640;23.302;2023-04-15T05:04:02;1.92;;;1.83;;
37931;SDS011;23758;42.640;23.302;2023-04-15T05:06:29;2.00;;;1.90;;
37931;SDS011;23758;42.640;23.302;2023-04-15T05:08:55;2.50;;;2.30;;
37931;SDS011;23758;42.640;23.302;2023-04-15T05:11:20;3.22;;;2.40;;
37931;SDS011;23758;42.640;23.302;2023-04-15T05:13:46;1.80;;;1.70;;
37931;SDS011;23758;42.640;23.302;2023-04-15T05:16:11;2.40;;;2.20;;
37931;SDS011;23758;42.640;23.302;2023-04-15T05:18:37;2.35;;;2.20;;
37931;SDS011;23758;42.640;23.302;2023-04-15T05:21:02;2.30;;;2.20;;
37931;SDS011;23758;42.640;23.302;2023-04-15T05:23:28;2.10;;;2.00;;
37931;SDS011;23758;42.640;23.302;2023-04-15T05:25:53;2.35;;;2.25;;
37931;SDS011;23758;42.640;23.302;2023-04-15T05:28:19;2.50;;;2.40;;
37931;SDS011;23758;42.640;23.302;2023-04-15T05:30:45;2.50;;;2.40;;
37931;SDS011;23758;42.640;23.302;2023-04-15T05:33:10;2.42;;;2.33;;
37931;SDS011;23758;42.640;23.302;2023-04-15T05:35:36;2.80;;;2.60;;
37931;SDS011;23758;42.640;23.302;2023-04-15T05:38:01;2.83;;;2.42;;
37931;SDS011;23758;42.640;23.302;2023-04-15T05:40:27;2.47;;;2.38;;
37931;SDS011;23758;42.640;23.302;2023-04-15T05:42:54;2.67;;;2.47;;
37931;SDS011;23758;42.640;23.302;2023-04-15T05:45:19;2.40;;;2.30;;
37931;SDS011;23758;42.640;23.302;2023-04-15T05:47:45;3.00;;;2.80;;
37931;SDS011;23758;42.640;23.302;2023-04-15T05:50:10;2.78;;;2.58;;
37931;SDS011;23758;42.640;23.302;2023-04-15T05:52:36;2.90;;;2.70;;
37931;SDS011;23758;42.640;23.302;2023-04-15T05:55:02;2.78;;;2.58;;
37931;SDS011;23758;42.640;23.302;2023-04-15T05:57:27;2.80;;;2.60;;
37931;SDS011;23758;42.640;23.302;2023-04-15T05:59:53;3.35;;;2.80;;
37931;SDS011;23758;42.640;23.302;2023-04-15T06:02:19;3.22;;;2.88;;
37931;SDS011;23758;42.640;23.302;2023-04-15T06:04:45;2.78;;;2.58;;
37931;SDS011;23758;42.640;23.302;2023-04-15T06:07:10;2.50;;;2.40;;
37931;SDS011;23758;42.640;23.302;2023-04-15T06:09:36;2.80;;;2.60;;
37931;SDS011;23758;42.640;23.302;2023-04-15T06:12:01;2.80;;;2.60;;
37931;SDS011;23758;42.640;23.302;2023-04-15T06:14:27;2.90;;;2.70;;
37931;SDS011;23758;42.640;23.302;2023-04-15T06:16:52;2.90;;;2.70;;
37931;SDS011;23758;42.640;23.302;2023-04-15T06:19:18;3.00;;;2.80;;
37931;SDS011;23758;42.640;23.302;2023-04-15T06:21:44;2.70;;;2.50;;
37931;SDS011;23758;42.640;23.302;2023-04-15T06:24:10;2.88;;;2.67;;
37931;SDS011;23758;42.640;23.302;2023-04-15T06:26:36;2.50;;;2.40;;
37931;SDS011;23758;42.640;23.302;2023-04-15T06:29:01;2.70;;;2.50;;
37931;SDS011;23758;42.640;23.302;2023-04-15T06:31:27;2.72;;;2.53;;
37931;SDS011;23758;42.640;23.302;2023-04-15T06:33:52;2.92;;;2.72;;
37931;SDS011;23758;42.640;23.302;2023-04-15T06:36:17;2.92;;;2.72;;
37931;SDS011;23758;42.640;23.302;2023-04-15T06:38:43;3.22;;;3.03;;
37931;SDS011;23758;42.640;23.302;2023-04-15T06:41:08;2.90;;;2.70;;
37931;SDS011;23758;42.640;23.302;2023-04-15T06:43:34;2.47;;;2.38;;
37931;SDS011;23758;42.640;23.302;2023-04-15T06:45:59;2.30;;;2.20;;
37931;SDS011;23758;42.640;23.302;2023-04-15T06:48:25;2.63;;;2.45;;
37931;SDS011;23758;42.640;23.302;2023-04-15T06:50:50;2.40;;;2.30;;
37931;SDS011;23758;42.640;23.302;2023-04-15T06:53:16;2.40;;;2.30;;
37931;SDS011;23758;42.640;23.302;2023-04-15T06:55:41;2.40;;;2.30;;
37931;SDS011;23758;42.640;23.302;2023-04-15T06:58:07;2.47;;;2.38;;
37931;SDS011;23758;42.640;23.302;2023-04-15T07:00:32;2.40;;;2.30;;
37931;SDS011;23758;42.640;23.302;2023-04-15T07:02:58;2.30;;;2.20;;
37931;SDS011;23758;42.640;23.302;2023-04-15T07:05:27;2.40;;;2.30;;
37931;SDS011;23758;42.640;23.302;2023-04-15T07:07:53;2.50;;;2.40;;
37931;SDS011;23758;42.640;23.302;2023-04-15T07:10:19;2.58;;;2.38;;
37931;SDS011;23758;42.640;23.302;2023-04-15T07:12:44;2.50;;;2.30;;
37931;SDS011;23758;42.640;23.302;2023-04-15T07:15:10;3.75;;;2.70;;
37931;SDS011;23758;42.640;23.302;2023-04-15T07:17:36;2.50;;;2.30;;
37931;SDS011;23758;42.640;23.302;2023-04-15T07:20:02;2.35;;;2.20;;
37931;SDS011;23758;42.640;23.302;2023-04-15T07:22:30;2.30;;;2.20;;
37931;SDS011;23758;42.640;23.302;2023-04-15T07:24:55;2.38;;;2.28;;
37931;SDS011;23758;42.640;23.302;2023-04-15T07:27:21;2.45;;;2.35;;
37931;SDS011;23758;42.640;23.302;2023-04-15T07:29:46;2.40;;;2.30;;
37931;SDS011;23758;42.640;23.302;2023-04-15T07:32:12;2.30;;;2.20;;
37931;SDS011;23758;42.640;23.302;2023-04-15T07:34:38;2.45;;;2.35;;
37931;SDS011;23758;42.640;23.302;2023-04-15T07:37:03;2.88;;;2.67;;
37931;SDS011;23758;42.640;23.302;2023-04-15T07:39:29;2.50;;;2.40;;
37931;SDS011;23758;42.640;23.302;2023-04-15T07:41:54;2.45;;;2.35;;
37931;SDS011;23758;42.640;23.302;2023-04-15T07:44:20;2.50;;;2.40;;
37931;SDS011;23758;42.640;23.302;2023-04-15T07:46:46;2.40;;;2.30;;
37931;SDS011;23758;42.640;23.302;2023-04-15T07:49:12;2.40;;;2.30;;
37931;SDS011;23758;42.640;23.302;2023-04-15T07:51:37;2.30;;;2.20;;
37931;SDS011;23758;42.640;23.302;2023-04-15T07:54:03;2.42;;;2.33;;
37931;SDS011;23758;42.640;23.302;2023-04-15T07:56:28;2.40;;;2.30;;
37931;SDS011;23758;42.640;23.302;2023-04-15T07:58:54;2.50;;;2.35;;
37931;SDS011;23758;42.640;23.302;2023-04-15T08:01:19;2.25;;;2.15;;
37931;SDS011;23758;42.640;23.302;2023-04-15T08:03:45;2.30;;;2.20;;
37931;SDS011;23758;42.640;23.302;2023-04-15T08:06:10;2.35;;;2.25;;
37931;SDS011;23758;42.640;23.302;2023-04-15T08:08:36;2.28;;;2.17;;
37931;SDS011;23758;42.640;23.302;2023-04-15T08:11:01;2.30;;;2.20;;
37931;SDS011;23758;42.640;23.302;2023-04-15T08:13:27;2.72;;;2.53;;
37931;SDS011;23758;42.640;23.302;2023-04-15T08:16:13;2.20;;;2.10;;
37931;SDS011;23758;42.640;23.302;2023-04-15T08:18:41;2.10;;;2.00;;
37931;SDS011;23758;42.640;23.302;2023-04-15T08:21:07;2.30;;;2.20;;
37931;SDS011;23758;42.640;23.302;2023-04-15T08:23:33;2.40;;;2.30;;
37931;SDS011;23758;42.640;23.302;2023-04-15T08:25:58;2.17;;;2.08;;
37931;SDS011;23758;42.640;23.302;2023-04-15T08:28:24;7.28;;;2.40;;
37931;SDS011;23758;42.640;23.302;2023-04-15T08:30:51;2.10;;;2.00;;
37931;SDS011;23758;42.640;23.302;2023-04-15T08:33:17;2.30;;;2.20;;
37931;SDS011;23758;42.640;23.302;2023-04-15T08:35:43;2.20;;;2.10;;
37931;SDS011;23758;42.640;23.302;2023-04-15T08:38:08;2.20;;;2.10;;
37931;SDS011;23758;42.640;23.302;2023-04-15T08:40:43;2.20;;;2.10;;
37931;SDS011;23758;42.640;23.302;2023-04-15T08:43:11;2.20;;;2.10;;
37931;SDS011;23758;42.640;23.302;2023-04-15T08:45:40;2.40;;;2.28;;
37931;SDS011;23758;42.640;23.302;2023-04-15T08:48:05;2.30;;;2.20;;
37931;SDS011;23758;42.640;23.302;2023-04-15T08:50:32;2.20;;;2.10;;
37931;SDS011;23758;42.640;23.302;2023-04-15T08:52:58;2.10;;;2.00;;
37931;SDS011;23758;42.640;23.302;2023-04-15T08:55:25;2.22;;;2.13;;
37931;SDS011;23758;42.640;23.302;2023-04-15T08:57:54;2.63;;;2.42;;
37931;SDS011;23758;42.640;23.302;2023-04-15T09:00:20;1.90;;;1.80;;
37931;SDS011;23758;42.640;23.302;2023-04-15T09:02:47;1.75;;;1.65;;
37931;SDS011;23758;42.640;23.302;2023-04-15T09:05:12;2.00;;;1.90;;
37931;SDS011;23758;42.640;23.302;2023-04-15T09:07:38;2.10;;;2.00;;
37931;SDS011;23758;42.640;23.302;2023-04-15T09:10:03;1.90;;;1.80;;
37931;SDS011;23758;42.640;23.302;2023-04-15T09:12:32;1.90;;;1.80;;
37931;SDS011;23758;42.640;23.302;2023-04-15T09:14:59;1.80;;;1.70;;
37931;SDS011;23758;42.640;23.302;2023-04-15T09:17:25;1.90;;;1.80;;
37931;SDS011;23758;42.640;23.302;2023-04-15T09:20:08;2.00;;;1.90;;
37931;SDS011;23758;42.640;23.302;2023-04-15T09:22:34;2.00;;;1.90;;
37931;SDS011;23758;42.640;23.302;2023-04-15T09:25:01;2.00;;;1.90;;
37931;SDS011;23758;42.640;23.302;2023-04-15T09:27:26;1.80;;;1.70;;
37931;SDS011;23758;42.640;23.302;2023-04-15T09:29:52;1.80;;;1.70;;
37931;SDS011;23758;42.640;23.302;2023-04-15T09:32:18;1.90;;;1.80;;
37931;SDS011;23758;42.640;23.302;2023-04-15T09:34:45;1.73;;;1.63;;
37931;SDS011;23758;42.640;23.302;2023-04-15T09:37:10;1.80;;;1.70;;
37931;SDS011;23758;42.640;23.302;2023-04-15T09:39:50;1.90;;;1.80;;
37931;SDS011;23758;42.640;23.302;2023-04-15T09:42:16;1.80;;;1.70;;
37931;SDS011;23758;42.640;23.302;2023-04-15T09:44:48;1.90;;;1.80;;
37931;SDS011;23758;42.640;23.302;2023-04-15T09:47:27;1.70;;;1.60;;
37931;SDS011;23758;42.640;23.302;2023-04-15T09:49:54;1.80;;;1.70;;
37931;SDS011;23758;42.640;23.302;2023-04-15T09:52:20;12.80;;;1.90;;
37931;SDS011;23758;42.640;23.302;2023-04-15T09:54:46;1.90;;;1.80;;
37931;SDS011;23758;42.640;23.302;2023-04-15T09:57:11;1.80;;;1.70;;
37931;SDS011;23758;42.640;23.302;2023-04-15T09:59:37;1.80;;;1.70;;
37931;SDS011;23758;42.640;23.302;2023-04-15T10:02:03;1.70;;;1.60;;
37931;SDS011;23758;42.640;23.302;2023-04-15T10:04:30;1.70;;;1.60;;
37931;SDS011;23758;42.640;23.302;2023-04-15T10:06:58;1.85;;;1.75;;
37931;SDS011;23758;42.640;23.302;2023-04-15T10:09:24;1.70;;;1.60;;
37931;SDS011;23758;42.640;23.302;2023-04-15T10:11:51;1.95;;;1.85;;
37931;SDS011;23758;42.640;23.302;2023-04-15T10:14:17;1.67;;;1.58;;
37931;SDS011;23758;42.640;23.302;2023-04-15T10:16:43;1.80;;;1.70;;
37931;SDS011;23758;42.640;23.302;2023-04-15T10:19:13;1.70;;;1.60;;
37931;SDS011;23758;42.640;23.302;2023-04-15T10:21:40;3.60;;;1.80;;
37931;SDS011;23758;42.640;23.302;2023-04-15T10:24:05;1.80;;;1.70;;
37931;SDS011;23758;42.640;23.302;2023-04-15T10:26:32;1.70;;;1.60;;
37931;SDS011;23758;42.640;23.302;2023-04-15T10:28:58;1.70;;;1.60;;
37931;SDS011;23758;42.640;23.302;2023-04-15T10:31:25;1.70;;;1.60;;
37931;SDS011;23758;42.640;23.302;2023-04-15T10:33:50;1.60;;;1.50;;
37931;SDS011;23758;42.640;23.302;2023-04-15T10:36:16;1.70;;;1.60;;
37931;SDS011;23758;42.640;23.302;2023-04-15T10:38:43;1.70;;;1.60;;
37931;SDS011;23758;42.640;23.302;2023-04-15T10:41:13;2.08;;;1.98;;
37931;SDS011;23758;42.640;23.302;2023-04-15T10:46:34;1.73;;;1.63;;
37931;SDS011;23758;42.640;23.302;2023-04-15T10:49:45;1.80;;;1.70;;
37931;SDS011;23758;42.640;23.302;2023-04-15T10:51:52;1.70;;;1.60;;
37931;SDS011;23758;42.640;23.302;2023-04-15T10:56:51;1.70;;;1.60;;
37931;SDS011;23758;42.640;23.302;2023-04-15T10:59:35;2.10;;;2.00;;
37931;SDS011;23758;42.640;23.302;2023-04-15T11:02:02;1.80;;;1.70;;
37931;SDS011;23758;42.640;23.302;2023-04-15T11:04:53;2.13;;;1.98;;
37931;SDS011;23758;42.640;23.302;2023-04-15T11:07:40;1.90;;;1.80;;
37931;SDS011;23758;42.640;23.302;2023-04-15T11:12:50;1.90;;;1.80;;
37931;SDS011;23758;42.640;23.302;2023-04-15T11:15:35;1.73;;;1.63;;
37931;SDS011;23758;42.640;23.302;2023-04-15T11:20:37;1.70;;;1.60;;
37931;SDS011;23758;42.640;23.302;2023-04-15T11:23:04;1.80;;;1.70;;
37931;SDS011;23758;42.640;23.302;2023-04-15T11:25:31;2.17;;;1.98;;
37931;SDS011;23758;42.640;23.302;2023-04-15T11:27:58;1.70;;;1.60;;
37931;SDS011;23758;42.640;23.302;2023-04-15T11:30:26;1.90;;;1.80;;
37931;SDS011;23758;42.640;23.302;2023-04-15T11:32:53;1.80;;;1.70;;
37931;SDS011;23758;42.640;23.302;2023-04-15T11:35:21;1.65;;;1.55;;
37931;SDS011;23758;42.640;23.302;2023-04-15T11:37:47;1.65;;;1.55;;
37931;SDS011;23758;42.640;23.302;2023-04-15T11:40:14;1.80;;;1.70;;
37931;SDS011;23758;42.640;23.302;2023-04-15T11:42:41;1.80;;;1.70;;
37931;SDS011;23758;42.640;23.302;2023-04-15T11:45:08;1.90;;;1.80;;
37931;SDS011;23758;42.640;23.302;2023-04-15T11:47:38;1.70;;;1.60;;
37931;SDS011;23758;42.640;23.302;2023-04-15T11:50:17;1.70;;;1.60;;
37931;SDS011;23758;42.640;23.302;2023-04-15T11:52:56;1.80;;;1.70;;
37931;SDS011;23758;42.640;23.302;2023-04-15T11:55:23;2.10;;;2.00;;
37931;SDS011;23758;42.640;23.302;2023-04-15T11:57:49;1.90;;;1.80;;
37931;SDS011;23758;42.640;23.302;2023-04-15T12:00:15;1.80;;;1.70;;
37931;SDS011;23758;42.640;23.302;2023-04-15T12:02:41;1.90;;;1.80;;
37931;SDS011;23758;42.640;23.302;2023-04-15T12:05:07;1.88;;;1.77;;
37931;SDS011;23758;42.640;23.302;2023-04-15T12:07:55;3.15;;;2.10;;
37931;SDS011;23758;42.640;23.302;2023-04-15T12:10:23;1.80;;;1.70;;
37931;SDS011;23758;42.640;23.302;2023-04-15T12:12:51;1.80;;;1.70;;
37931;SDS011;23758;42.640;23.302;2023-04-15T12:15:17;2.00;;;1.90;;
37931;SDS011;23758;42.640;23.302;2023-04-15T12:17:46;2.00;;;1.90;;
37931;SDS011;23758;42.640;23.302;2023-04-15T12:20:11;1.90;;;1.80;;
37931;SDS011;23758;42.640;23.302;2023-04-15T12:22:37;2.20;;;2.10;;
37931;SDS011;23758;42.640;23.302;2023-04-15T12:25:02;2.08;;;1.98;;
37931;SDS011;23758;42.640;23.302;2023-04-15T12:27:28;2.40;;;2.30;;
37931;SDS011;23758;42.640;23.302;2023-04-15T12:30:05;2.50;;;2.30;;
37931;SDS011;23758;42.640;23.302;2023-04-15T12:32:34;2.38;;;2.20;;
37931;SDS011;23758;42.640;23.302;2023-04-15T12:35:00;1.92;;;1.83;;
37931;SDS011;23758;42.640;23.302;2023-04-15T12:37:25;1.88;;;1.77;;
37931;SDS011;23758;42.640;23.302;2023-04-15T12:39:51;2.10;;;2.00;;
37931;SDS011;23758;42.640;23.302;2023-04-15T12:42:18;2.00;;;1.90;;
37931;SDS011;23758;42.640;23.302;2023-04-15T12:44:43;1.92;;;1.83;;
37931;SDS011;23758;42.640;23.302;2023-04-15T12:47:09;1.90;;;1.80;;
37931;SDS011;23758;42.640;23.302;2023-04-15T12:49:35;1.90;;;1.80;;
37931;SDS011;23758;42.640;23.302;2023-04-15T12:52:01;1.90;;;1.80;;
37931;SDS011;23758;42.640;23.302;2023-04-15T12:54:28;1.80;;;1.70;;
37931;SDS011;23758;42.640;23.302;2023-04-15T12:56:54;2.45;;;2.30;;
37931;SDS011;23758;42.640;23.302;2023-04-15T12:59:20;1.90;;;1.80;;
37931;SDS011;23758;42.640;23.302;2023-04-15T13:01:46;1.98;;;1.88;;
37931;SDS011;23758;42.640;23.302;2023-04-15T13:04:12;1.92;;;1.83;;
37931;SDS011;23758;42.640;23.302;2023-04-15T13:06:38;1.90;;;1.80;;
37931;SDS011;23758;42.640;23.302;2023-04-15T13:09:03;1.80;;;1.70;;
37931;SDS011;23758;42.640;23.302;2023-04-15T13:11:29;1.88;;;1.77;;
37931;SDS011;23758;42.640;23.302;2023-04-15T13:13:57;1.80;;;1.70;;
37931;SDS011;23758;42.640;23.302;2023-04-15T13:16:26;1.92;;;1.83;;
37931;SDS011;23758;42.640;23.302;2023-04-15T13:18:51;1.80;;;1.70;;
37931;SDS011;23758;42.640;23.302;2023-04-15T13:21:18;2.10;;;2.00;;
37931;SDS011;23758;42.640;23.302;2023-04-15T13:23:44;1.80;;;1.70;;
37931;SDS011;23758;42.640;23.302;2023-04-15T13:26:09;1.80;;;1.70;;
37931;SDS011;23758;42.640;23.302;2023-04-15T13:28:35;1.90;;;1.80;;
37931;SDS011;23758;42.640;23.302;2023-04-15T13:31:01;1.80;;;1.70;;
37931;SDS011;23758;42.640;23.302;2023-04-15T13:33:26;1.83;;;1.73;;
37931;SDS011;23758;42.640;23.302;2023-04-15T13:35:52;1.80;;;1.70;;
37931;SDS011;23758;42.640;23.302;2023-04-15T13:38:17;1.80;;;1.70;;
37931;SDS011;23758;42.640;23.302;2023-04-15T13:40:43;1.90;;;1.80;;
37931;SDS011;23758;42.640;23.302;2023-04-15T13:43:08;1.98;;;1.88;;
37931;SDS011;23758;42.640;23.302;2023-04-15T13:45:34;1.90;;;1.80;;
37931;SDS011;23758;42.640;23.302;2023-04-15T13:47:59;1.88;;;1.77;;
37931;SDS011;23758;42.640;23.302;2023-04-15T13:50:25;1.85;;;1.75;;
37931;SDS011;23758;42.640;23.302;2023-04-15T13:52:51;1.90;;;1.80;;
37931;SDS011;23758;42.640;23.302;2023-04-15T13:55:16;2.00;;;1.90;;
37931;SDS011;23758;42.640;23.302;2023-04-15T13:57:42;5.80;;;2.42;;
37931;SDS011;23758;42.640;23.302;2023-04-15T14:00:08;2.00;;;1.90;;
37931;SDS011;23758;42.640;23.302;2023-04-15T14:02:33;3.17;;;1.90;;
37931;SDS011;23758;42.640;23.302;2023-04-15T14:04:59;1.90;;;1.80;;
37931;SDS011;23758;42.640;23.302;2023-04-15T14:07:24;1.80;;;1.70;;
37931;SDS011;23758;42.640;23.302;2023-04-15T14:09:50;1.90;;;1.80;;
37931;SDS011;23758;42.640;23.302;2023-04-15T14:12:15;1.75;;;1.65;;
37931;SDS011;23758;42.640;23.302;2023-04-15T14:14:41;2.00;;;1.90;;
37931;SDS011;23758;42.640;23.302;2023-04-15T14:17:06;1.80;;;1.70;;
37931;SDS011;23758;42.640;23.302;2023-04-15T14:19:32;1.90;;;1.80;;
37931;SDS011;23758;42.640;23.302;2023-04-15T14:21:57;2.10;;;2.00;;
37931;SDS011;23758;42.640;23.302;2023-04-15T14:24:23;1.80;;;1.70;;
37931;SDS011;23758;42.640;23.302;2023-04-15T14:26:48;1.80;;;1.70;;
37931;SDS011;23758;42.640;23.302;2023-04-15T14:29:14;1.80;;;1.70;;
37931;SDS011;23758;42.640;23.302;2023-04-15T14:31:40;1.92;;;1.83;;
37931;SDS011;23758;42.640;23.302;2023-04-15T14:34:06;1.90;;;1.80;;
37931;SDS011;23758;42.640;23.302;2023-04-15T14:36:31;1.90;;;1.80;;
37931;SDS011;23758;42.640;23.302;2023-04-15T14:38:57;2.00;;;1.90;;
37931;SDS011;23758;42.640;23.302;2023-04-15T14:41:23;1.90;;;1.80;;